AirNav   Get $300 off a Bose A20 Aviation Headset
 
 1187 users online  

5R7 Roy E Ray Airport
Bayou La Batre, Alabama, USA

GOING TO BAYOU LA BATRE?


FAA INFORMATION EFFECTIVE 12 SEPTEMBER 2019

Location

FAA Identifier: 5R7
Lat/Long: 30-27-18.9000N 088-12-40.3000W
30-27.315000N 088-12.671667W
30.4552500,-88.2111944
(estimated)
Elevation: 87 ft. / 27 m (estimated)
Variation: 02E (1985)
From city: 3 miles NE of BAYOU LA BATRE, AL
Time zone: UTC -5 (UTC -6 during Standard Time)
Zip code: 36544

Airport Operations

Airport use: Open to the public
Activation date: 07/1965
Control tower: no
ARTCC: HOUSTON CENTER
FSS: ANNISTON FLIGHT SERVICE STATION
NOTAMs facility: ANB (NOTAM-D service available)
Attendance: ON CALL
FOR ARPT ATTENDANT CALL 251-591-6985
Wind indicator: yes
Segmented circle: no
Lights: PHONE REQ

Airport Communications

CTAF: 122.9
WX ASOS at BFM (13 nm NE): PHONE 251-431-6762
WX ASOS at MOB (14 nm N): PHONE 251-607-0469
WX ASOS at PQL (16 nm W): 135.175 (228-474-2836)
WX AWOS-3PT at CQF (17 nm E): 118.425 (251-928-3242)

Nearby radio navigation aids

VOR radial/distance  VOR name  Freq  Var
BFMr216/12.4BROOKLEY VORTAC112.8004E
SJIr150/18.0SEMMES VORTAC115.3005E

 
NDB name  Hdg/Dist  Freq  Var  ID
WISLE166/18.924801WMOB -- --- -...

Airport Services

Fuel available: 100LL
Parking: tiedowns
Airframe service: MINOR
Powerplant service: MINOR
Bottled oxygen: NONE
Bulk oxygen: NONE

Runway Information

Runway 18/36

Dimensions: 2000 x 150 ft. / 610 x 46 m
Surface: turf, in good condition
Runway edge markings: RY 18/36 MKD WITH WHITE GARBAGE CAN TOPS.
RUNWAY 18  RUNWAY 36
Latitude: 30-27.479835N30-27.149875N
Longitude: 088-12.674415W088-12.667498W
Elevation: 76.0 ft.87.0 ft.
Traffic pattern: leftleft
Runway heading: 177 magnetic, 179 true357 magnetic, 359 true
Markings: NSTD
Obstructions: 31 ft. pole, 843 ft. from runway, 24 ft. left of centerline, 27:1 slope to clear64 ft. trees, 940 ft. from runway, 169 ft. right of centerline, 14:1 slope to clear

Airport Ownership and Management from official FAA records

Ownership: Privately-owned
Owner: ROBBY GRICE
11317 AIRPORT ROAD
IRVINGTON, AL 36544
Phone (251) 591-6985
Manager: ROBBY GRICE, PRESIDENT
11317 AIRPORT ROAD
IRVINGTON, AL 36544
Phone (251) 591-6985

Airport Operational Statistics

Aircraft based on the field: 35
Single engine airplanes: 32
Multi engine airplanes: 2
Ultralights: 1
    
Aircraft operations: avg 134/week *
59% transient general aviation
41% local general aviation
* for 12-month period ending 01 May 2018

Additional Remarks

FOR CD CTC HOUSTON ARTCC AT 281-230-5622.

Instrument Procedures

There are no published instrument procedures at 5R7.

Some nearby airports with instrument procedures:

2R5 - St Elmo Airport (4 nm NW)
KBFM - Mobile Downtown Airport (13 nm NE)
KMOB - Mobile Regional Airport (14 nm N)
KPQL - Trent Lott International Airport (16 nm W)
KCQF - H L Sonny Callahan Airport (17 nm E)
 
Loc | Ops | Rwys | IFR | FBO | Links
Com | Nav | Svcs | Stats | Notes

Continental Motors
AirBoss

 
Area around 5R7 (Roy E Ray Airport)
 
Road maps at: MapQuest Bing Google
 
Aerial photo
WARNING: Photo may not be current or correct
Aerial photo of 5R7 (Roy E Ray Airport)
Photo taken 31-Jan-2009

Do you have a better or more recent aerial photo of Roy E Ray Airport that you would like to share? If so, please send us your photo.

 
Sectional chart

 
Airport distance calculator
Flying to Roy E Ray Airport? Find the distance to fly.

From to 5R7

Sunrise and sunset
Times for 19-Sep-2019
 Local
(UTC-5)
 Zulu
(UTC)
Morning civil twilight06:1611:16
Sunrise06:4011:40
Sunset18:5323:53
Evening civil twilight19:1700:17

Current date and time
Zulu (UTC)  19-Sep-2019 13:14:46
Local (UTC-5)  19-Sep-2019 08:14:46
 
METAR
KBFM 
12nm NE 
191253Z 09011KT 10SM FEW015 28/24 A3001 RMK AO2 SLP162 T02780244
KMOB 
14nm N 
191256Z 07006KT 10SM FEW050 BKN250 26/24 A3001 RMK AO2 SLP157 T02610239
KPQL 
17nm W 
190531Z AUTO 00000KT 3SM BR CLR 23/22 A2996 RMK AO2 T02280217
KCQF 
17nm E 
191255Z AUTO 08004KT 10SM CLR 25/23 A3000 RMK AO2
TAF
KBFM 
12nm NE 
191129Z 1912/2012 31003KT P6SM SKC FM191500 13014KT P6SM VCSH BKN050 FM191800 12012KT P6SM BKN050 TEMPO 1918/1921 P6SM -TSRA BKN050CB FM200000 13007KT P6SM BKN250 FM200600 08008KT P6SM BKN100
KMOB 
14nm N 
191129Z 1912/2012 07003KT P6SM SCT250 FM191500 13014KT P6SM VCSH BKN050 FM191800 12012KT P6SM BKN050 TEMPO 1918/1921 P6SM -TSRA BKN050CB FM200000 13007KT P6SM BKN250 FM200600 08008KT P6SM BKN100
NOTAMs
Click for the latest NOTAMs
NOTAMs are issued by the DoD/FAA and will open in a separate window not controlled by AirNav.

 

 
 

FBO, Fuel Providers, and Aircraft Ground Support

  
 Business Name 
 
 Contact 
 
 Services / Description 
 
Fuel Prices
 
Comments
  
Roy E. Ray Airport 251-824-4538
no information available

If you are affiliated with Roy E. Ray Airport and would like to show here your services, contact info, web link, logo, and more, click here
100LL
PS $4.90 
 Updated 26-Aug-2019
 
   write
PS=Pump service
Update Fuel Prices
 

Would you like to see your business listed on this page?

 If your business provides an interesting product or service to pilots, flight crews, aircraft, or users of the Roy E Ray Airport, you should consider listing it here.  To start the listing process, click on the button below
 
Add a business
 

Other Pages about Roy E Ray Airport

Update a link
 
Copyright © AirNav, LLC. All rights reserved. Privacy Policy  Contact